createdAt,value
2022-08-06T00:02:07.695Z,100043.94
2022-08-06T00:07:10.698Z,100045.27
2022-08-06T00:12:21.618Z,100070.45
2022-08-06T00:17:33.145Z,100080.67
2022-08-06T00:22:36.058Z,100093.33
2022-08-06T00:27:40.115Z,100107.68
2022-08-06T00:32:51.950Z,100106.94
2022-08-06T00:37:59.083Z,100104.40
2022-08-06T00:43:06.459Z,100104.63
2022-08-06T00:48:21.688Z,100118.04
2022-08-06T00:53:38.178Z,100127.52
2022-08-06T00:58:41.793Z,100142.34
2022-08-06T01:03:51.228Z,100126.52
2022-08-06T01:08:55.137Z,100113.67
2022-08-06T01:14:03.884Z,100120.33
2022-08-06T01:21:21.989Z,100123.92
2022-08-06T01:25:47.287Z,100128.95
2022-08-06T01:31:02.963Z,100122.95
2022-08-06T01:36:12.264Z,100113.08
2022-08-06T01:41:54.550Z,100123.91
2022-08-06T01:47:16.268Z,100135.52
2022-08-06T01:52:29.735Z,100135.89
2022-08-06T01:58:18.541Z,100145.82
2022-08-06T02:03:04.164Z,100153.03
2022-08-06T02:08:38.347Z,100161.89
2022-08-06T02:13:46.624Z,100170.05
2022-08-06T02:18:52.299Z,100177.02
2022-08-06T02:23:56.499Z,100181.11
2022-08-06T02:29:02.709Z,100174.85
2022-08-06T02:34:14.530Z,100177.86
2022-08-06T02:39:29.973Z,100181.56
2022-08-06T02:45:03.899Z,100195.07
2022-08-06T02:50:09.686Z,100205.16
2022-08-06T02:55:23.085Z,100214.00
2022-08-06T03:00:37.992Z,100207.59
2022-08-06T03:05:54.859Z,100205.91
2022-08-06T03:11:01.527Z,100209.72
2022-08-06T03:16:23.623Z,100210.55
2022-08-06T03:21:29.234Z,100206.70
2022-08-06T03:26:44.038Z,100213.29
2022-08-06T03:31:58.351Z,100219.24
2022-08-06T03:37:04.887Z,100231.40
2022-08-06T03:42:11.268Z,100242.02
2022-08-06T03:47:31.091Z,100249.16
2022-08-06T03:52:49.995Z,100247.61
2022-08-06T03:57:56.451Z,100254.77
2022-08-06T04:03:02.820Z,100266.36
2022-08-06T04:08:07.582Z,100281.06
2022-08-06T04:14:02.881Z,100292.55
2022-08-06T04:18:42.271Z,100301.81
2022-08-06T04:23:45.764Z,100317.97
2022-08-06T04:28:52.886Z,100336.25
2022-08-06T04:34:02.903Z,100350.29
2022-08-06T04:39:09.005Z,100361.01
2022-08-06T04:44:18.694Z,100372.88
2022-08-06T04:49:23.847Z,100389.24
2022-08-06T04:54:46.688Z,100394.17
2022-08-06T04:59:50.581Z,100404.54
2022-08-06T05:04:58.819Z,100426.16
2022-08-06T05:10:05.229Z,100432.66
2022-08-06T05:15:22.121Z,100436.09
2022-08-06T05:20:29.388Z,100441.40
2022-08-06T05:25:37.090Z,100450.95
2022-08-06T05:30:48.618Z,100439.11
2022-08-06T05:36:01.799Z,100430.36
2022-08-06T05:41:10.580Z,100439.00
2022-08-06T05:46:21.602Z,100441.67
2022-08-06T05:52:00.125Z,100451.67
2022-08-06T05:57:11.854Z,100462.48
2022-08-06T06:02:20.465Z,100472.55
2022-08-06T06:08:08.238Z,100479.86
2022-08-06T06:12:48.022Z,100495.93
2022-08-06T06:18:34.432Z,100503.27
2022-08-06T06:23:45.967Z,100508.79
2022-08-06T06:29:12.075Z,100507.92
2022-08-06T06:34:27.319Z,100513.99
2022-08-06T06:39:39.720Z,100524.92
2022-08-06T06:46:04.487Z,100526.58
2022-08-06T06:50:33.218Z,100535.51
2022-08-06T06:55:56.591Z,100538.87
2022-08-06T07:01:26.943Z,100520.09
2022-08-06T07:06:43.463Z,100538.89
2022-08-06T07:12:02.982Z,100556.30
2022-08-06T07:17:44.850Z,100541.25
2022-08-06T07:22:32.814Z,100548.38
2022-08-06T07:27:45.034Z,100565.17
2022-08-06T07:32:58.174Z,100560.41
2022-08-06T07:38:03.306Z,100556.45
2022-08-06T07:43:24.689Z,100559.46
2022-08-06T07:48:52.261Z,100578.66
2022-08-06T07:54:01.626Z,100598.44
2022-08-06T07:59:11.986Z,100592.79
2022-08-06T08:04:52.613Z,100589.58
2022-08-06T08:10:02.397Z,100600.73
2022-08-06T08:15:17.984Z,100610.84
2022-08-06T08:20:22.715Z,100602.17
2022-08-06T08:25:42.955Z,100621.29
2022-08-06T08:30:49.916Z,100644.08
2022-08-06T08:36:00.567Z,100649.24
2022-08-06T08:41:22.145Z,100662.55
2022-08-06T08:46:31.474Z,100645.20
2022-08-06T08:51:43.140Z,100644.93
2022-08-06T08:57:10.264Z,100661.85
2022-08-06T09:02:13.571Z,100674.94
2022-08-06T09:07:19.466Z,100687.63
2022-08-06T09:12:37.176Z,100703.11
2022-08-06T09:18:11.162Z,100704.44
2022-08-06T09:23:13.591Z,100726.20
2022-08-06T09:28:43.403Z,100722.83
2022-08-06T09:34:30.590Z,100729.71
2022-08-06T09:39:45.969Z,100734.30
2022-08-06T09:45:15.568Z,100740.79
2022-08-06T09:50:44.411Z,100751.07
2022-08-06T09:55:47.602Z,100744.02
2022-08-06T10:00:51.224Z,100745.21
2022-08-06T10:06:05.751Z,100750.13
2022-08-06T10:11:10.314Z,100755.50
2022-08-06T10:16:28.853Z,100755.02
2022-08-06T10:21:41.843Z,100758.89
2022-08-06T10:26:52.078Z,100765.86
2022-08-06T10:31:57.438Z,100761.27
2022-08-06T10:37:10.880Z,100758.64
2022-08-06T10:42:27.911Z,100756.65
2022-08-06T10:48:26.274Z,100752.08
2022-08-06T10:52:57.030Z,100756.54
2022-08-06T10:58:02.284Z,100756.77
2022-08-06T11:03:21.401Z,100758.59
2022-08-06T11:09:01.427Z,100759.30
2022-08-06T11:14:18.406Z,100763.84
2022-08-06T11:19:46.321Z,100768.36
2022-08-06T11:25:00.608Z,100766.45
2022-08-06T11:30:13.412Z,100769.55
2022-08-06T11:35:36.217Z,100769.03
2022-08-06T11:40:59.750Z,100768.02
2022-08-06T11:46:32.075Z,100768.81
2022-08-06T11:51:44.418Z,100771.29
2022-08-06T11:57:03.019Z,100771.10
2022-08-06T12:02:09.038Z,100773.48
2022-08-06T12:07:33.433Z,100772.02
2022-08-06T12:12:52.023Z,100768.04
2022-08-06T12:18:20.836Z,100765.67
2022-08-06T12:23:54.666Z,100775.51
2022-08-06T12:28:48.018Z,100785.30
2022-08-06T12:33:51.152Z,100779.53
2022-08-06T12:38:58.356Z,100784.41
2022-08-06T12:44:03.862Z,100790.36
2022-08-06T12:49:08.331Z,100790.55
2022-08-06T12:54:11.598Z,100791.61
2022-08-06T12:59:36.398Z,100792.08
2022-08-06T13:04:51.474Z,100792.95
2022-08-06T13:10:33.835Z,100794.70
2022-08-06T13:15:22.444Z,100792.91
2022-08-06T13:20:36.816Z,100800.85
2022-08-06T13:25:54.551Z,100799.74
2022-08-06T13:31:25.341Z,100796.83
2022-08-06T13:36:53.583Z,100803.47
2022-08-06T13:42:14.127Z,100804.03
2022-08-06T13:47:38.730Z,100809.70
2022-08-06T13:52:59.318Z,100803.89
2022-08-06T13:58:04.904Z,100807.79
2022-08-06T14:03:07.901Z,100806.50
2022-08-06T14:08:26.596Z,100804.78
2022-08-06T14:13:37.424Z,100817.95
2022-08-06T14:18:47.772Z,100829.80
2022-08-06T14:24:06.440Z,100830.13
2022-08-06T14:30:28.236Z,100832.49
2022-08-06T14:34:35.807Z,100835.20
2022-08-06T14:39:59.944Z,100834.73
2022-08-06T14:45:07.620Z,100830.39
2022-08-06T14:50:10.613Z,100822.61
2022-08-06T14:55:22.116Z,100819.74
2022-08-06T15:00:35.007Z,100831.48
2022-08-06T15:06:04.206Z,100833.47
2022-08-06T15:11:18.020Z,100832.86
2022-08-06T15:16:47.439Z,100835.81
2022-08-06T15:21:51.105Z,100839.04
2022-08-06T15:26:58.875Z,100848.14
2022-08-06T15:32:17.490Z,100854.48
2022-08-06T15:37:54.386Z,100856.69
2022-08-06T15:42:44.284Z,100858.23
2022-08-06T15:47:47.883Z,100859.83
2022-08-06T15:52:53.647Z,100856.83
2022-08-06T15:58:07.337Z,100857.06
2022-08-06T16:03:13.948Z,100867.84
2022-08-06T16:08:23.077Z,100871.59
2022-08-06T16:13:38.467Z,100874.45
2022-08-06T16:18:49.266Z,100874.64
2022-08-06T16:24:03.257Z,100874.64
2022-08-06T16:29:09.603Z,100875.66
2022-08-06T16:34:13.430Z,100874.02
2022-08-06T16:39:36.403Z,100872.61
2022-08-06T16:50:24.910Z,100886.92
2022-08-06T16:55:31.800Z,100886.79
2022-08-06T17:01:00.101Z,100888.89
2022-08-06T17:06:00.211Z,100892.91
2022-08-06T17:11:45.512Z,100893.85
2022-08-06T17:21:52.866Z,100900.09
2022-08-06T17:27:02.416Z,100908.02
2022-08-06T17:32:07.141Z,100917.29
2022-08-06T17:37:43.859Z,100916.16
2022-08-06T17:42:28.999Z,100878.63
2022-08-06T17:42:48.899Z,100923.42
2022-08-06T17:47:52.596Z,100927.58
2022-08-06T17:52:56.233Z,100938.39
2022-08-06T17:58:33.099Z,100942.46
2022-08-06T18:03:23.936Z,100950.49
2022-08-06T18:08:50.540Z,100958.59
2022-08-06T18:13:55.015Z,100966.17
2022-08-06T18:18:58.947Z,100975.23
2022-08-06T18:24:01.894Z,100973.98
2022-08-06T18:29:06.556Z,100979.04
2022-08-06T18:34:16.185Z,100980.98
2022-08-06T18:39:23.210Z,100989.19
2022-08-06T18:44:51.494Z,100991.19
2022-08-06T18:49:57.785Z,100992.77
2022-08-06T18:55:04.485Z,100989.29
2022-08-06T19:00:18.195Z,100998.17
2022-08-06T19:05:26.771Z,101003.17
2022-08-06T19:10:32.560Z,101008.73
2022-08-06T19:15:46.409Z,101015.23
2022-08-06T19:20:58.767Z,101016.20
2022-08-06T19:26:12.813Z,101016.16
2022-08-06T19:31:41.367Z,101024.75
2022-08-06T19:36:48.165Z,101028.06
2022-08-06T19:41:55.786Z,101027.92
2022-08-06T19:47:15.610Z,101037.62
2022-08-06T19:52:25.741Z,101043.36
2022-08-06T19:57:30.391Z,101045.94
2022-08-06T20:02:36.799Z,101046.45
2022-08-06T20:08:10.668Z,101054.40
2022-08-06T20:13:18.951Z,101060.48
2022-08-06T20:18:22.079Z,101062.17
2022-08-06T20:23:25.388Z,101061.52
2022-08-06T20:29:10.790Z,101059.89
2022-08-06T20:33:59.980Z,101068.77
2022-08-06T20:39:03.819Z,101079.80
2022-08-06T20:44:08.530Z,101080.48
2022-08-06T20:49:13.122Z,101081.91
2022-08-06T20:54:18.226Z,101078.78
2022-08-06T20:59:24.380Z,101083.58
2022-08-06T21:05:14.926Z,101082.08
2022-08-06T21:10:00.027Z,101084.38
2022-08-06T21:15:05.222Z,101082.08
2022-08-06T21:20:09.897Z,101085.46
2022-08-06T21:25:18.819Z,101092.69
2022-08-06T21:30:29.562Z,101097.56
2022-08-06T21:35:34.080Z,101098.56
2022-08-06T21:40:39.302Z,101102.96
2022-08-06T21:45:58.607Z,101102.71
2022-08-06T21:51:06.346Z,101101.97
2022-08-06T21:56:38.511Z,101096.55
2022-08-06T22:02:08.850Z,101090.26
2022-08-06T22:07:02.550Z,101087.86
2022-08-06T22:12:37.905Z,101088.92
2022-08-06T22:17:59.322Z,101087.06
2022-08-06T22:22:56.379Z,101088.48
2022-08-06T22:28:02.148Z,101092.97
2022-08-06T22:33:17.329Z,101094.79
2022-08-06T22:38:23.880Z,101096.19
2022-08-06T22:43:29.987Z,101096.92
2022-08-06T22:48:52.952Z,101096.43
2022-08-06T22:54:26.729Z,101100.08
2022-08-06T22:59:20.380Z,101099.13
2022-08-06T23:04:38.843Z,101096.81
2022-08-06T23:09:50.757Z,101100.96
2022-08-06T23:14:55.224Z,101106.08
2022-08-06T23:19:58.914Z,101110.63
2022-08-06T23:26:00.063Z,101109.55
2022-08-06T23:30:26.296Z,101103.34
2022-08-06T23:35:35.851Z,101107.43
2022-08-06T23:40:40.604Z,101107.19
2022-08-06T23:45:48.100Z,101105.59
2022-08-06T23:50:54.368Z,101115.66
2022-08-06T23:55:59.735Z,101111.41
